createdAt,value
2018-03-20T00:00:52.812Z,73.60
2018-03-20T00:03:20.723Z,74.10
2018-03-20T00:05:49.459Z,73.80
2018-03-20T00:08:17.377Z,74.10
2018-03-20T00:10:46.210Z,74.00
2018-03-20T00:13:13.995Z,74.20
2018-03-20T00:15:42.727Z,73.70
2018-03-20T00:18:10.712Z,73.70
2018-03-20T00:20:38.800Z,73.90
2018-03-20T00:23:06.723Z,73.70
2018-03-20T00:25:34.728Z,72.80
2018-03-20T00:28:03.351Z,72.00
2018-03-20T00:30:31.035Z,71.90
2018-03-20T00:32:58.954Z,72.40
2018-03-20T00:35:27.454Z,72.90
2018-03-20T00:37:55.273Z,72.20
2018-03-20T00:40:23.142Z,71.90
2018-03-20T00:42:51.130Z,71.60
2018-03-20T00:45:19.715Z,70.70
2018-03-20T00:47:47.753Z,70.70
2018-03-20T00:50:15.619Z,70.00
2018-03-20T00:52:44.331Z,70.10
2018-03-20T00:55:13.174Z,70.00
2018-03-20T00:57:41.957Z,69.90
2018-03-20T01:00:12.241Z,69.90
2018-03-20T01:02:41.052Z,69.20
2018-03-20T01:05:08.907Z,69.00
2018-03-20T01:07:36.772Z,68.50
2018-03-20T01:10:04.901Z,67.90
2018-03-20T01:12:32.923Z,68.50
2018-03-20T01:15:00.930Z,69.30
2018-03-20T01:17:29.549Z,68.10
2018-03-20T01:19:57.669Z,67.90
2018-03-20T01:22:26.299Z,68.80
2018-03-20T01:24:54.165Z,68.20
2018-03-20T01:27:21.932Z,67.80
2018-03-20T01:29:49.878Z,67.70
2018-03-20T01:32:18.110Z,67.90
2018-03-20T01:34:45.997Z,67.90
2018-03-20T01:37:14.846Z,67.20
2018-03-20T01:39:43.401Z,67.10
2018-03-20T01:42:11.271Z,68.30
2018-03-20T01:44:39.166Z,67.40
2018-03-20T01:47:07.093Z,68.40
2018-03-20T01:49:35.209Z,68.10
2018-03-20T01:52:03.147Z,69.10
2018-03-20T01:54:31.213Z,68.40
2018-03-20T01:56:59.090Z,69.10
2018-03-20T01:59:27.017Z,67.40
2018-03-20T02:01:55.020Z,68.20
2018-03-20T02:04:22.825Z,67.90
2018-03-20T02:06:50.739Z,67.70
2018-03-20T02:09:18.821Z,68.30
2018-03-20T02:11:46.793Z,68.00
2018-03-20T02:14:14.828Z,68.10
2018-03-20T02:16:42.781Z,68.00
2018-03-20T02:19:11.240Z,67.60
2018-03-20T02:21:39.263Z,68.30
2018-03-20T02:24:08.321Z,68.70
2018-03-20T02:26:36.303Z,68.70
2018-03-20T02:29:04.276Z,67.50
2018-03-20T02:31:33.005Z,66.70
2018-03-20T02:34:01.259Z,66.70
2018-03-20T02:36:29.716Z,66.60
2018-03-20T02:38:58.440Z,66.00
2018-03-20T02:41:26.413Z,65.80
2018-03-20T02:43:54.288Z,65.80
2018-03-20T02:46:24.027Z,66.20
2018-03-20T02:48:51.997Z,66.90
2018-03-20T02:51:19.949Z,66.00
2018-03-20T02:53:47.833Z,65.90
2018-03-20T02:56:15.799Z,65.30
2018-03-20T02:58:44.031Z,65.60
2018-03-20T03:01:12.004Z,66.40
2018-03-20T03:03:39.961Z,66.10
2018-03-20T03:06:07.978Z,66.80
2018-03-20T03:08:35.891Z,66.50
2018-03-20T03:11:04.548Z,67.40
2018-03-20T03:13:32.516Z,67.30
2018-03-20T03:16:00.503Z,67.10
2018-03-20T03:18:29.081Z,66.40
2018-03-20T03:20:57.009Z,66.30
2018-03-20T03:23:24.958Z,66.80
2018-03-20T03:25:52.908Z,66.50
2018-03-20T03:28:21.542Z,67.20
2018-03-20T03:30:49.563Z,67.20
2018-03-20T03:33:17.513Z,68.10
2018-03-20T03:35:45.528Z,67.60
2018-03-20T03:38:13.557Z,68.40
2018-03-20T03:40:41.662Z,68.10
2018-03-20T03:43:09.604Z,68.00
2018-03-20T03:45:37.755Z,68.40
2018-03-20T03:48:05.973Z,69.00
2018-03-20T03:50:33.943Z,68.30
2018-03-20T03:53:01.983Z,69.20
2018-03-20T03:55:29.878Z,69.50
2018-03-20T03:57:57.741Z,69.90
2018-03-20T04:00:26.554Z,71.40
2018-03-20T04:02:54.422Z,70.60
2018-03-20T04:05:22.325Z,70.80
2018-03-20T04:07:50.303Z,71.10
2018-03-20T04:10:18.143Z,72.00
2018-03-20T04:12:46.017Z,72.70
2018-03-20T04:15:14.055Z,73.00
2018-03-20T04:17:42.035Z,73.30
2018-03-20T04:20:09.877Z,73.40
2018-03-20T04:22:37.940Z,73.50
2018-03-20T04:25:06.029Z,73.50
2018-03-20T04:27:34.042Z,74.20
2018-03-20T04:30:02.037Z,74.30
2018-03-20T04:32:30.041Z,74.30
2018-03-20T04:34:57.936Z,74.20
2018-03-20T04:37:25.961Z,73.70
2018-03-20T04:39:54.608Z,73.60
2018-03-20T04:42:22.663Z,73.60
2018-03-20T04:44:50.694Z,74.00
2018-03-20T04:47:18.588Z,74.10
2018-03-20T04:49:46.489Z,73.30
2018-03-20T04:52:14.409Z,72.70
2018-03-20T04:54:42.296Z,73.00
2018-03-20T04:57:10.972Z,72.80
2018-03-20T04:59:39.242Z,73.30
2018-03-20T05:02:07.192Z,73.30
2018-03-20T05:04:35.159Z,73.70
2018-03-20T05:07:02.964Z,73.80
2018-03-20T05:09:31.904Z,73.70
2018-03-20T05:11:59.711Z,73.20
2018-03-20T05:14:27.637Z,73.80
2018-03-20T05:16:56.514Z,72.20
2018-03-20T05:19:30.129Z,72.40
2018-03-20T05:22:04.025Z,72.40
2018-03-20T05:24:31.899Z,72.90
2018-03-20T05:27:00.691Z,71.30
2018-03-20T05:29:28.715Z,71.90
2018-03-20T05:31:56.646Z,72.30
2018-03-20T05:34:25.454Z,71.90
2018-03-20T05:36:53.902Z,71.70
2018-03-20T05:39:22.443Z,71.30
2018-03-20T05:41:50.493Z,71.80
2018-03-20T05:44:18.564Z,71.10
2018-03-20T05:46:51.988Z,71.20
2018-03-20T05:52:23.544Z,70.10
2018-03-20T05:54:51.378Z,68.70
2018-03-20T05:57:19.960Z,67.80
2018-03-20T05:59:47.944Z,67.80
2018-03-20T06:02:15.957Z,68.80
2018-03-20T06:04:43.930Z,68.50
2018-03-20T06:07:12.011Z,68.40
2018-03-20T06:09:40.897Z,68.50
2018-03-20T06:12:09.697Z,67.50
2018-03-20T06:14:37.716Z,67.50
2018-03-20T06:17:05.648Z,68.20
2018-03-20T06:19:33.646Z,67.90
2018-03-20T06:22:02.208Z,67.70
2018-03-20T06:24:30.154Z,68.30
2018-03-20T06:26:58.146Z,67.10
2018-03-20T06:29:26.080Z,67.20
2018-03-20T06:31:53.989Z,66.70
2018-03-20T06:34:24.503Z,66.80
2018-03-20T06:36:52.509Z,66.80
2018-03-20T06:39:20.467Z,67.10
2018-03-20T06:41:48.478Z,66.70
2018-03-20T06:44:17.610Z,66.60
2018-03-20T06:46:45.468Z,66.80
2018-03-20T06:49:13.471Z,66.20
2018-03-20T06:51:41.470Z,66.80
2018-03-20T06:54:09.377Z,66.60
2018-03-20T06:56:37.356Z,66.90
2018-03-20T06:59:05.178Z,67.80
2018-03-20T07:01:33.032Z,68.10
2018-03-20T07:04:00.898Z,68.30
2018-03-20T07:06:28.884Z,68.90
2018-03-20T07:08:56.928Z,68.70
2018-03-20T07:11:24.774Z,69.20
2018-03-20T07:13:52.923Z,68.90
2018-03-20T07:16:20.818Z,69.40
2018-03-20T07:18:48.708Z,69.60
2018-03-20T07:21:16.609Z,69.70
2018-03-20T07:23:44.618Z,69.30
2018-03-20T07:26:12.448Z,69.80
2018-03-20T07:28:40.244Z,69.30
2018-03-20T07:31:08.020Z,68.40
2018-03-20T07:33:36.156Z,68.40
2018-03-20T07:36:04.708Z,68.10
2018-03-20T07:38:32.750Z,68.00
2018-03-20T07:41:01.485Z,68.10
2018-03-20T07:43:29.320Z,68.00
2018-03-20T07:45:57.404Z,68.00
2018-03-20T07:48:25.496Z,67.20
2018-03-20T07:50:53.374Z,67.10
2018-03-20T07:53:26.654Z,66.90
2018-03-20T07:55:55.124Z,66.80
2018-03-20T07:58:23.179Z,66.10
2018-03-20T08:00:51.132Z,66.20
2018-03-20T08:03:19.848Z,66.00
2018-03-20T08:05:47.784Z,66.60
2018-03-20T08:08:15.873Z,65.50
2018-03-20T08:10:43.908Z,64.20
2018-03-20T08:13:11.882Z,65.10
2018-03-20T08:15:39.875Z,64.00
2018-03-20T08:18:07.828Z,64.00
2018-03-20T08:20:36.694Z,64.20
2018-03-20T08:23:04.742Z,64.20
2018-03-20T08:25:32.668Z,64.40
2018-03-20T08:28:00.648Z,63.00
2018-03-20T08:30:28.610Z,64.00
2018-03-20T08:32:56.629Z,63.80
2018-03-20T08:35:24.524Z,63.10
2018-03-20T08:37:52.531Z,63.40
2018-03-20T08:40:20.298Z,62.10
2018-03-20T08:42:48.148Z,62.50
2018-03-20T08:45:16.006Z,63.40
2018-03-20T08:47:44.684Z,62.20
2018-03-20T08:50:13.446Z,61.80
2018-03-20T08:52:41.298Z,61.60
2018-03-20T08:55:09.268Z,61.50
2018-03-20T08:57:37.158Z,62.10
2018-03-20T09:00:05.819Z,61.70
2018-03-20T09:02:33.744Z,61.50
2018-03-20T09:05:02.396Z,61.30
2018-03-20T09:07:31.456Z,61.90
2018-03-20T09:09:59.648Z,61.70
2018-03-20T09:12:27.511Z,60.70
2018-03-20T09:14:56.094Z,59.20
2018-03-20T09:17:24.038Z,59.20
2018-03-20T09:19:52.017Z,59.40
2018-03-20T09:22:19.862Z,60.70
2018-03-20T09:24:47.760Z,60.30
2018-03-20T09:27:15.780Z,60.30
2018-03-20T09:29:43.788Z,59.60
2018-03-20T09:32:11.724Z,59.80
2018-03-20T09:34:39.715Z,59.60
2018-03-20T09:37:08.137Z,60.20
2018-03-20T09:39:36.990Z,59.60
2018-03-20T09:42:05.031Z,59.50
2018-03-20T09:44:32.938Z,58.60
2018-03-20T09:47:01.058Z,59.50
2018-03-20T09:49:29.968Z,60.10
2018-03-20T09:51:58.599Z,59.90
2018-03-20T09:54:27.464Z,58.70
2018-03-20T09:56:55.387Z,58.70
2018-03-20T09:59:23.399Z,59.60
2018-03-20T10:01:51.446Z,58.40
2018-03-20T10:04:19.400Z,58.20
2018-03-20T10:06:48.127Z,58.70
2018-03-20T10:09:16.288Z,58.60
2018-03-20T10:11:44.172Z,59.10
2018-03-20T10:14:12.040Z,59.40
2018-03-20T10:16:40.024Z,60.20
2018-03-20T10:19:08.468Z,59.80
2018-03-20T10:21:36.356Z,59.40
2018-03-20T10:24:04.335Z,60.90
2018-03-20T10:26:32.368Z,60.20
2018-03-20T10:29:00.360Z,61.00
2018-03-20T10:31:28.434Z,60.10
2018-03-20T10:33:56.560Z,59.90
2018-03-20T10:36:24.374Z,60.20
2018-03-20T10:38:52.144Z,59.80
2018-03-20T10:41:20.073Z,59.80
2018-03-20T10:43:48.942Z,59.60
2018-03-20T10:46:16.912Z,59.50
2018-03-20T10:48:44.877Z,59.70
2018-03-20T10:51:12.911Z,58.40
2018-03-20T10:53:40.923Z,58.90
2018-03-20T10:56:09.313Z,59.30
2018-03-20T10:58:37.158Z,59.40
2018-03-20T11:01:06.610Z,55.70
2018-03-20T11:03:34.618Z,55.60
2018-03-20T11:06:02.419Z,56.10
2018-03-20T11:08:30.424Z,56.40
2018-03-20T11:10:58.370Z,55.20
2018-03-20T11:13:26.289Z,55.10
2018-03-20T11:15:54.301Z,56.50
2018-03-20T11:18:22.945Z,54.90
2018-03-20T11:20:50.969Z,54.90
2018-03-20T11:23:18.801Z,55.20
2018-03-20T11:25:46.697Z,56.30
2018-03-20T11:28:14.588Z,55.40
2018-03-20T11:30:42.510Z,55.70
2018-03-20T11:33:11.149Z,55.30
2018-03-20T11:35:39.126Z,55.00
2018-03-20T11:38:07.030Z,52.60
2018-03-20T11:40:35.078Z,54.50
2018-03-20T11:43:03.176Z,55.50
2018-03-20T11:45:30.984Z,55.30
2018-03-20T11:47:58.924Z,54.20
2018-03-20T11:50:26.744Z,55.10
2018-03-20T11:52:54.662Z,54.10
2018-03-20T11:55:22.514Z,55.10
2018-03-20T11:57:50.509Z,56.90
2018-03-20T12:00:19.241Z,52.70
2018-03-20T12:02:47.934Z,52.30
2018-03-20T12:05:15.853Z,52.30
2018-03-20T12:07:54.698Z,51.30
2018-03-20T12:10:22.617Z,52.60
2018-03-20T12:12:50.530Z,53.10
2018-03-20T12:15:18.445Z,52.40
2018-03-20T12:17:46.258Z,51.90
2018-03-20T12:20:14.030Z,52.10
2018-03-20T12:22:42.055Z,50.90
2018-03-20T12:25:09.846Z,51.90
2018-03-20T12:27:37.640Z,49.80
2018-03-20T12:30:05.476Z,51.90
2018-03-20T12:32:33.199Z,51.80
2018-03-20T12:35:00.846Z,50.10
2018-03-20T12:37:28.574Z,51.20
2018-03-20T12:39:56.352Z,51.40
2018-03-20T12:42:23.990Z,53.20
2018-03-20T12:44:51.752Z,51.20
2018-03-20T12:47:19.549Z,51.70
2018-03-20T12:49:48.038Z,52.60
2018-03-20T12:52:15.684Z,52.50
2018-03-20T12:54:44.008Z,53.00
2018-03-20T12:57:11.664Z,52.90
2018-03-20T12:59:40.074Z,51.70
2018-03-20T13:02:08.067Z,51.60
2018-03-20T13:04:36.738Z,49.70
2018-03-20T13:07:04.666Z,49.70
2018-03-20T13:09:33.248Z,51.90
2018-03-20T13:12:01.941Z,52.20
2018-03-20T13:14:29.781Z,52.60
2018-03-20T13:16:57.679Z,52.20
2018-03-20T13:19:25.336Z,52.40
2018-03-20T13:21:52.971Z,51.10
2018-03-20T13:24:20.608Z,52.60
2018-03-20T13:26:49.075Z,51.80
2018-03-20T13:29:16.689Z,51.70
2018-03-20T13:31:44.329Z,52.00
2018-03-20T13:34:11.920Z,53.00
2018-03-20T13:36:39.586Z,53.50
2018-03-20T13:39:07.253Z,53.50
2018-03-20T13:41:35.632Z,53.30
2018-03-20T13:44:03.286Z,52.70
2018-03-20T13:46:30.933Z,53.80
2018-03-20T13:48:58.525Z,53.90
2018-03-20T13:51:26.157Z,54.10
2018-03-20T13:53:53.766Z,53.00
2018-03-20T13:56:21.340Z,53.20
2018-03-20T13:58:49.701Z,52.70
2018-03-20T14:01:18.129Z,54.20
2018-03-20T14:03:45.786Z,54.20
2018-03-20T14:06:13.445Z,53.50
2018-03-20T14:08:40.958Z,53.70
2018-03-20T14:11:08.592Z,55.10
2018-03-20T14:13:36.192Z,54.80
2018-03-20T14:16:03.775Z,52.70
2018-03-20T14:18:32.112Z,53.50
2018-03-20T14:20:59.666Z,53.40
2018-03-20T14:23:27.252Z,53.90
2018-03-20T14:25:54.927Z,53.80
2018-03-20T14:28:22.571Z,55.50
2018-03-20T14:30:50.946Z,55.30
2018-03-20T14:33:18.674Z,55.20
2018-03-20T14:35:46.347Z,55.40
2018-03-20T14:38:13.949Z,56.50
2018-03-20T14:40:42.347Z,56.00
2018-03-20T14:43:09.978Z,55.80
2018-03-20T14:45:37.574Z,56.30
2018-03-20T14:48:05.114Z,57.00
2018-03-20T14:50:33.598Z,56.40
2018-03-20T14:53:01.363Z,56.30
2018-03-20T14:55:29.174Z,56.30
2018-03-20T14:57:56.978Z,56.10
2018-03-20T15:00:26.153Z,53.90
2018-03-20T15:02:53.984Z,56.00
2018-03-20T15:05:23.056Z,56.50
2018-03-20T15:07:51.012Z,57.10
2018-03-20T15:10:18.817Z,56.90
2018-03-20T15:12:46.391Z,57.60
2018-03-20T15:15:14.014Z,57.20
2018-03-20T15:17:41.809Z,57.70
2018-03-20T15:20:09.526Z,57.70
2018-03-20T15:22:38.084Z,54.20
2018-03-20T15:25:05.662Z,54.10
2018-03-20T15:27:33.422Z,54.60
2018-03-20T15:30:01.210Z,55.00
2018-03-20T15:32:29.040Z,55.40
2018-03-20T15:34:56.863Z,55.80
2018-03-20T15:37:24.675Z,56.30
2018-03-20T15:39:52.449Z,55.40
2018-03-20T15:42:20.949Z,56.40
2018-03-20T15:44:48.666Z,56.30
2018-03-20T15:47:16.375Z,56.00
2018-03-20T15:49:44.728Z,55.30
2018-03-20T15:52:12.413Z,55.30
2018-03-20T15:54:40.755Z,55.80
2018-03-20T15:57:08.391Z,55.80
2018-03-20T15:59:36.123Z,56.10
2018-03-20T16:02:03.793Z,55.30
2018-03-20T16:04:31.492Z,54.70
2018-03-20T16:06:59.096Z,54.50
2018-03-20T16:09:26.854Z,55.40
2018-03-20T16:11:55.508Z,54.90
2018-03-20T16:14:23.394Z,54.70
2018-03-20T16:16:52.213Z,55.30
2018-03-20T16:19:20.123Z,55.70
2018-03-20T16:21:47.930Z,54.70
2018-03-20T16:24:16.881Z,55.40
2018-03-20T16:26:45.736Z,56.20
2018-03-20T16:29:15.452Z,56.50
2018-03-20T16:31:43.659Z,56.50
2018-03-20T16:34:12.336Z,56.30
2018-03-20T16:36:40.268Z,56.90
2018-03-20T16:39:10.952Z,56.60
2018-03-20T16:41:40.503Z,57.20
2018-03-20T16:44:08.308Z,57.20
2018-03-20T16:46:37.085Z,56.90
2018-03-20T16:49:04.916Z,56.80
2018-03-20T16:51:32.873Z,56.60
2018-03-20T16:54:02.270Z,57.30
2018-03-20T16:56:30.192Z,57.30
2018-03-20T16:58:59.211Z,57.90
2018-03-20T17:01:27.169Z,58.10
2018-03-20T17:03:55.144Z,58.10
2018-03-20T17:06:22.986Z,58.60
2018-03-20T17:08:52.108Z,57.90
2018-03-20T17:11:19.848Z,58.30
2018-03-20T17:13:47.656Z,58.60
2018-03-20T17:16:15.464Z,58.80
2018-03-20T17:18:44.985Z,59.00
2018-03-20T17:21:13.122Z,59.70
2018-03-20T17:23:40.874Z,59.00
2018-03-20T17:26:08.629Z,59.20
2018-03-20T17:28:37.708Z,59.50
2018-03-20T17:31:06.125Z,60.00
2018-03-20T17:33:33.696Z,60.10
2018-03-20T17:36:01.486Z,59.80
2018-03-20T17:38:29.175Z,60.10
2018-03-20T17:40:56.835Z,60.70
2018-03-20T17:43:24.425Z,61.20
2018-03-20T17:45:52.632Z,61.10
2018-03-20T17:48:20.476Z,61.40
2018-03-20T17:50:48.206Z,61.30
2018-03-20T17:53:15.830Z,61.30
2018-03-20T17:55:43.451Z,60.60
2018-03-20T17:58:11.092Z,60.90
2018-03-20T18:00:38.727Z,61.00
2018-03-20T18:03:06.354Z,61.50
2018-03-20T18:05:35.924Z,61.40
2018-03-20T18:08:03.593Z,61.40
2018-03-20T18:10:31.273Z,61.70
2018-03-20T18:12:58.999Z,61.50
2018-03-20T18:15:26.759Z,61.80
2018-03-20T18:17:54.340Z,61.50
2018-03-20T18:20:22.156Z,62.80
2018-03-20T18:22:49.995Z,61.20
2018-03-20T18:25:17.914Z,60.90
2018-03-20T18:27:45.762Z,61.50
2018-03-20T18:30:13.644Z,60.80
2018-03-20T18:32:41.341Z,60.50
2018-03-20T18:35:09.151Z,60.80
2018-03-20T18:37:36.809Z,60.80
2018-03-20T18:40:04.480Z,60.60
2018-03-20T18:42:32.072Z,60.40
2018-03-20T18:44:59.750Z,60.80
2018-03-20T18:47:28.738Z,60.90
2018-03-20T18:49:57.596Z,60.80
2018-03-20T18:52:25.241Z,61.50
2018-03-20T18:54:52.919Z,61.80
2018-03-20T18:57:20.637Z,62.30
2018-03-20T18:59:48.310Z,62.80
2018-03-20T19:02:15.998Z,63.10
2018-03-20T19:04:43.622Z,62.50
2018-03-20T19:07:11.286Z,62.90
2018-03-20T19:09:39.794Z,62.90
2018-03-20T19:12:07.437Z,62.90
2018-03-20T19:14:35.056Z,63.50
2018-03-20T19:17:03.117Z,63.50
2018-03-20T19:19:30.991Z,63.50
2018-03-20T19:21:58.704Z,63.70
2018-03-20T19:24:26.492Z,63.80
2018-03-20T19:26:54.216Z,64.10
2018-03-20T19:29:21.972Z,63.80
2018-03-20T19:31:49.981Z,63.70
2018-03-20T19:34:17.950Z,63.50
2018-03-20T19:36:45.815Z,64.10
2018-03-20T19:39:13.670Z,63.60
2018-03-20T19:41:41.562Z,63.70
2018-03-20T19:44:10.378Z,63.20
2018-03-20T19:46:38.320Z,63.10
2018-03-20T19:49:06.203Z,63.30
2018-03-20T19:51:34.039Z,63.40
2018-03-20T19:54:02.056Z,63.70
2018-03-20T19:56:30.471Z,62.40
2018-03-20T19:58:58.294Z,62.30
2018-03-20T20:01:26.902Z,62.40
2018-03-20T20:03:54.829Z,62.40
2018-03-20T20:06:26.803Z,62.30
2018-03-20T20:08:58.232Z,61.80
2018-03-20T20:11:31.955Z,61.80
2018-03-20T20:13:59.882Z,61.90
2018-03-20T20:16:30.302Z,62.00
2018-03-20T20:18:59.914Z,61.90
2018-03-20T20:21:27.847Z,61.40
2018-03-20T20:23:56.090Z,61.20
2018-03-20T20:26:23.985Z,60.90
2018-03-20T20:28:51.895Z,60.90
2018-03-20T20:31:19.912Z,61.10
2018-03-20T20:33:47.758Z,61.50
2018-03-20T20:36:16.939Z,61.20
2018-03-20T20:38:44.935Z,60.80
2018-03-20T20:41:13.991Z,60.80
2018-03-20T20:43:41.923Z,60.50
2018-03-20T20:46:09.851Z,60.80
2018-03-20T20:48:37.788Z,61.00
2018-03-20T20:51:05.711Z,60.90
2018-03-20T20:53:35.689Z,60.30
2018-03-20T20:56:03.767Z,60.90
2018-03-20T20:58:31.598Z,60.40
2018-03-20T21:01:01.188Z,60.10
2018-03-20T21:03:29.246Z,60.10
2018-03-20T21:05:58.303Z,60.90
2018-03-20T21:08:26.268Z,60.10
2018-03-20T21:10:54.975Z,60.00
2018-03-20T21:13:22.678Z,60.00
2018-03-20T21:15:50.439Z,60.80
2018-03-20T21:18:18.272Z,60.40
2018-03-20T21:20:46.903Z,60.50
2018-03-20T21:23:15.238Z,60.30
2018-03-20T21:25:43.311Z,60.30
2018-03-20T21:28:11.403Z,60.60
2018-03-20T21:30:39.530Z,60.10
2018-03-20T21:33:07.513Z,60.00
2018-03-20T21:35:36.859Z,59.40
2018-03-20T21:38:04.787Z,59.30
2018-03-20T21:40:32.828Z,59.50
2018-03-20T21:43:00.807Z,59.70
2018-03-20T21:45:28.725Z,59.60
2018-03-20T21:47:56.648Z,59.60
2018-03-20T21:50:24.851Z,59.50
2018-03-20T21:52:52.739Z,59.70
2018-03-20T21:55:20.465Z,59.70
2018-03-20T21:57:48.193Z,60.00
2018-03-20T22:00:16.126Z,60.10
2018-03-20T22:02:44.056Z,60.00
2018-03-20T22:05:12.113Z,60.00
2018-03-20T22:07:40.905Z,59.90
2018-03-20T22:10:08.915Z,59.90
2018-03-20T22:12:36.948Z,59.80
2018-03-20T22:15:04.938Z,59.70
2018-03-20T22:17:32.905Z,59.40
2018-03-20T22:20:00.764Z,59.30
2018-03-20T22:22:28.817Z,59.30
2018-03-20T22:24:57.641Z,59.60
2018-03-20T22:27:25.439Z,59.50
2018-03-20T22:29:53.247Z,59.40
2018-03-20T22:32:21.066Z,59.30
2018-03-20T22:34:49.818Z,58.70
2018-03-20T22:37:18.494Z,59.70
2018-03-20T22:39:46.403Z,59.20
2018-03-20T22:42:14.504Z,58.70
2018-03-20T22:44:42.481Z,58.70
2018-03-20T22:47:10.467Z,59.00
2018-03-20T22:49:38.621Z,58.80
2018-03-20T22:52:06.679Z,60.00
2018-03-20T22:54:34.852Z,58.80
2018-03-20T22:57:02.902Z,59.60
2018-03-20T22:59:30.874Z,59.30
2018-03-20T23:01:58.815Z,59.60
2018-03-20T23:04:28.479Z,59.80
2018-03-20T23:06:57.263Z,59.80
2018-03-20T23:09:25.989Z,59.70
2018-03-20T23:11:54.035Z,59.50
2018-03-20T23:14:22.085Z,59.20
2018-03-20T23:16:49.767Z,59.40
2018-03-20T23:19:17.735Z,59.30
2018-03-20T23:21:46.463Z,59.40
2018-03-20T23:24:14.363Z,59.50
2018-03-20T23:26:42.345Z,59.40
2018-03-20T23:29:11.622Z,59.40
2018-03-20T23:31:39.571Z,59.40
2018-03-20T23:34:07.498Z,59.50
2018-03-20T23:36:36.411Z,59.40
2018-03-20T23:39:04.265Z,58.90
2018-03-20T23:41:32.139Z,58.80
2018-03-20T23:44:00.183Z,59.00
2018-03-20T23:46:27.875Z,58.80
2018-03-20T23:48:55.619Z,58.80
2018-03-20T23:51:24.132Z,59.30
2018-03-20T23:53:52.156Z,59.30
2018-03-20T23:56:20.817Z,59.30
2018-03-20T23:58:48.893Z,59.20
